Terminal Aerodrome Forecast
Issued by NWS

Home | Current Version | Previous Version | Text Only | Print | Product List | Glossary Off
Versions: 1 2 3 4 5 6 7 8 9 10 11 12 13 14 15 16 17 18 19 20 21 22

000
FTUS43 KABR 261500 AAB
TAFATY
TAF AMD
KATY 261507Z 2615/2712 36014KT P6SM OVC010
      TEMPO 2616/2618 6SM -FZDZ BR
     FM262000 35015KT P6SM OVC035
     FM270500 34008KT P6SM OVC060=

USA.gov is the U.S. government's official web portal to all federal, state and local government web resources and services.